Time;durP1;ratioP1;P1;durP2;ratioP2;P2;SDS_P1;SDS_P2;PMS_P1;PMS_P2;Temp;Humidity;BMP_temperature;BMP_pressure;BME280_temperature;BME280_humidity;BME280_pressure;Samples;Min_cycle;Max_cycle;Signal;HPM_P1;HPM_P2
2022/03/06 00:00:58;;;;;;;12.23;9.50;;;;;;;-0.50;nan;98378.84;5018080;28;1060771;-70
2022/03/06 00:03:24;;;;;;;13.83;9.70;;;;;;;-0.38;nan;98379.50;5041908;28;20206;-70
2022/03/06 00:05:50;;;;;;;14.43;10.57;;;;;;;-0.37;nan;98376.75;5053687;28;20885;-70
2022/03/06 00:08:17;;;;;;;15.57;10.63;;;;;;;-0.32;nan;98376.31;5049730;28;20913;-68
2022/03/06 00:10:43;;;;;;;16.20;10.27;;;;;;;-0.35;nan;98377.41;5036308;28;20861;-67
2022/03/06 00:13:10;;;;;;;13.37;9.67;;;;;;;-0.14;nan;98372.81;5055519;28;20423;-67
2022/03/06 00:15:36;;;;;;;14.30;10.23;;;;;;;-0.13;nan;98382.28;5051660;28;20431;-67
2022/03/06 00:18:03;;;;;;;14.83;10.13;;;;;;;-0.26;nan;98375.75;5048568;28;20451;-67
2022/03/06 00:20:29;;;;;;;15.53;9.97;;;;;;;-0.21;nan;98379.56;5054393;28;20434;-67
2022/03/06 00:22:55;;;;;;;13.60;9.83;;;;;;;-0.23;nan;98376.28;5046410;28;20427;-67
2022/03/06 00:25:22;;;;;;;13.37;10.33;;;;;;;-0.34;nan;98370.41;5055391;28;20429;-67
2022/03/06 00:27:48;;;;;;;13.53;9.57;;;;;;;-0.37;nan;98370.69;5051463;28;20490;-67
2022/03/06 00:30:15;;;;;;;15.60;9.90;;;;;;;-0.44;nan;98375.66;5050680;28;20854;-72
2022/03/06 00:32:41;;;;;;;15.00;10.10;;;;;;;-0.47;nan;98385.56;5044785;28;20734;-72
2022/03/06 00:35:08;;;;;;;13.67;10.23;;;;;;;-0.56;nan;98375.97;5055108;28;20419;-67
2022/03/06 00:37:35;;;;;;;13.97;10.00;;;;;;;-0.50;nan;98373.63;5055445;28;20419;-70
2022/03/06 00:40:02;;;;;;;14.63;10.07;;;;;;;-0.50;nan;98363.19;5055188;28;20927;-67
2022/03/06 00:42:29;;;;;;;15.13;10.00;;;;;;;-0.52;nan;98372.97;5055617;28;20744;-70
2022/03/06 00:44:55;;;;;;;15.27;10.07;;;;;;;-0.70;nan;98368.59;5055161;28;20434;-70
2022/03/06 00:47:21;;;;;;;12.37;9.50;;;;;;;-0.77;nan;98370.97;5055452;28;20462;-70
2022/03/06 00:49:48;;;;;;;13.70;9.87;;;;;;;-0.64;nan;98376.69;5055193;28;20921;-71
2022/03/06 00:52:14;;;;;;;14.37;9.73;;;;;;;-0.67;nan;98378.78;5055899;28;20880;-68
2022/03/06 00:54:41;;;;;;;16.23;10.50;;;;;;;-0.61;nan;98384.25;5058442;28;20430;-68
2022/03/06 00:57:08;;;;;;;15.83;9.83;;;;;;;-0.64;nan;98381.09;5059249;28;20442;-72
2022/03/06 00:59:35;;;;;;;13.30;10.03;;;;;;;-0.76;nan;98390.06;5059260;28;20462;-71
2022/03/06 01:02:06;;;;;;;13.77;10.10;;;;;;;-0.77;nan;98391.84;5057418;28;20903;-71
2022/03/06 01:04:34;;;;;;;12.73;8.97;;;;;;;-0.71;nan;98391.25;5059694;28;20476;-70
2022/03/06 01:07:02;;;;;;;15.67;9.50;;;;;;;-0.62;nan;98392.22;5059105;28;20545;-70
2022/03/06 01:09:29;;;;;;;13.33;9.60;;;;;;;-0.69;nan;98383.28;5059209;28;20945;-71
2022/03/06 01:11:55;;;;;;;15.73;10.23;;;;;;;-0.80;nan;98384.28;5052676;28;20423;-70
2022/03/06 01:14:22;;;;;;;14.07;9.90;;;;;;;-0.77;nan;98391.03;5039230;28;20439;-72
2022/03/06 01:16:48;;;;;;;15.33;10.33;;;;;;;-0.75;nan;98387.31;5039265;28;20434;-71
2022/03/06 01:19:14;;;;;;;16.00;10.30;;;;;;;-0.84;nan;98393.38;5053477;28;20458;-71
2022/03/06 01:21:41;;;;;;;15.13;9.70;;;;;;;-0.81;nan;98403.50;5058033;28;20427;-72
2022/03/06 01:24:08;;;;;;;15.07;10.13;;;;;;;-0.90;nan;98391.31;5050423;28;20442;-72
2022/03/06 01:26:34;;;;;;;16.27;10.60;;;;;;;-0.93;nan;98403.81;5054709;28;20777;-72
2022/03/06 01:29:00;;;;;;;12.70;9.20;;;;;;;-0.94;nan;98394.34;5043742;28;20463;-72
2022/03/06 01:31:27;;;;;;;14.97;10.50;;;;;;;-1.06;nan;98393.66;5053343;28;20430;-72
2022/03/06 01:33:53;;;;;;;14.20;10.10;;;;;;;-1.20;nan;98403.69;5058611;28;20434;-72
2022/03/06 01:36:19;;;;;;;14.47;10.27;;;;;;;-1.19;nan;98393.13;5058570;28;20434;-71
2022/03/06 01:38:46;;;;;;;14.73;9.80;;;;;;;-1.21;nan;98392.41;5057295;28;20477;-72
2022/03/06 01:41:12;;;;;;;16.40;10.17;;;;;;;-1.17;nan;98398.22;5058500;28;20442;-72
2022/03/06 01:43:38;;;;;;;14.60;10.00;;;;;;;-1.29;nan;98392.31;5058337;28;20434;-72
2022/03/06 01:46:05;;;;;;;15.10;9.80;;;;;;;-1.41;nan;98400.38;5058430;28;20438;-72
2022/03/06 01:48:31;;;;;;;16.83;10.37;;;;;;;-1.41;nan;98395.16;5057446;28;20478;-72
2022/03/06 01:50:58;;;;;;;13.87;10.13;;;;;;;-1.42;nan;98391.75;5058163;28;20434;-73
2022/03/06 01:53:24;;;;;;;13.23;9.67;;;;;;;-1.47;nan;98388.72;5057885;28;20742;-71
2022/03/06 01:55:50;;;;;;;14.67;9.97;;;;;;;-1.45;nan;98389.41;5057455;28;20438;-73
2022/03/06 01:58:17;;;;;;;12.57;9.77;;;;;;;-1.50;nan;98385.56;5058052;28;20466;-72
2022/03/06 02:00:48;;;;;;;15.37;10.00;;;;;;;-1.43;nan;98381.44;5057880;28;20457;-71
2022/03/06 02:03:14;;;;;;;14.00;9.97;;;;;;;-1.54;nan;98377.19;5057417;28;20434;-72
2022/03/06 02:05:41;;;;;;;14.37;9.83;;;;;;;-1.55;nan;98380.75;5057095;28;20504;-72
2022/03/06 02:08:08;;;;;;;15.07;10.17;;;;;;;-1.60;nan;98375.13;5056768;28;20478;-72
2022/03/06 02:10:35;;;;;;;13.83;10.03;;;;;;;-1.59;nan;98376.78;5057907;28;20437;-72
2022/03/06 02:13:02;;;;;;;14.43;10.10;;;;;;;-1.63;nan;98378.00;5057590;28;20435;-72
2022/03/06 02:15:29;;;;;;;15.20;11.00;;;;;;;-1.61;nan;98376.09;5058129;28;20449;-72
2022/03/06 02:17:55;;;;;;;15.60;10.27;;;;;;;-1.63;nan;98370.19;5043699;28;20901;-72
2022/03/06 02:20:24;;;;;;;17.97;10.07;;;;;;;-1.61;nan;98383.91;5057766;28;20442;-72
2022/03/06 02:22:59;;;;;;;14.23;9.97;;;;;;;-1.52;nan;98364.03;5057584;28;20436;-72
2022/03/06 02:25:35;;;;;;;14.83;10.27;;;;;;;-1.53;nan;98375.41;5057689;28;20433;-72
2022/03/06 02:28:09;;;;;;;14.07;10.47;;;;;;;-1.65;nan;98377.31;5050070;28;20455;-71
2022/03/06 02:30:39;;;;;;;13.67;9.63;;;;;;;-1.62;nan;98382.25;5058034;28;20450;-72
2022/03/06 02:33:07;;;;;;;14.27;9.60;;;;;;;-1.58;nan;98375.81;5057542;28;20427;-71
2022/03/06 02:35:35;;;;;;;14.13;9.50;;;;;;;-1.59;nan;98374.16;5057255;28;20877;-71
2022/03/06 02:38:02;;;;;;;15.20;10.40;;;;;;;-1.63;nan;98378.00;5051839;28;20446;-72
2022/03/06 02:40:28;;;;;;;14.23;9.97;;;;;;;-1.63;nan;98379.81;5057044;28;20434;-72
2022/03/06 02:43:00;;;;;;;13.97;9.60;;;;;;;-1.66;nan;98373.03;5057283;28;20430;-72
2022/03/06 02:45:28;;;;;;;15.57;10.00;;;;;;;-1.78;nan;98378.53;5057335;28;20792;-71
2022/03/06 02:47:57;;;;;;;15.60;10.37;;;;;;;-1.80;nan;98370.84;5049938;28;20481;-71
2022/03/06 02:50:27;;;;;;;14.63;10.33;;;;;;;-1.78;nan;98374.16;5057189;28;20445;-72
2022/03/06 02:52:54;;;;;;;15.53;10.20;;;;;;;-1.90;nan;98377.81;5056171;28;20435;-71
2022/03/06 02:55:21;;;;;;;16.73;9.87;;;;;;;-1.80;nan;98363.00;5056717;28;20865;-72
2022/03/06 02:57:48;;;;;;;15.73;10.20;;;;;;;-1.84;nan;98372.09;5056972;28;20437;-71
2022/03/06 03:00:17;;;;;;;14.13;10.00;;;;;;;-1.91;nan;98370.13;5055596;28;20428;-71
2022/03/06 03:02:43;;;;;;;15.20;10.20;;;;;;;-1.85;nan;98369.59;5051485;28;20517;-72
2022/03/06 03:05:11;;;;;;;15.87;10.10;;;;;;;-1.90;nan;98370.00;5055962;28;20450;-71
2022/03/06 03:07:39;;;;;;;14.60;9.27;;;;;;;-1.89;nan;98374.25;5056831;28;20470;-71
2022/03/06 03:10:08;;;;;;;13.70;9.87;;;;;;;-1.88;nan;98380.28;5056487;28;20512;-72
2022/03/06 03:12:35;;;;;;;15.53;10.07;;;;;;;-1.96;nan;98383.56;5048318;28;20854;-71
2022/03/06 03:15:01;;;;;;;14.13;10.30;;;;;;;-1.92;nan;98389.31;5056512;28;20450;-70
2022/03/06 03:17:28;;;;;;;16.90;9.50;;;;;;;-1.92;nan;98387.56;5056243;28;20885;-70
2022/03/06 03:19:54;;;;;;;15.93;10.07;;;;;;;-1.95;nan;98380.00;5056854;28;20461;-70
2022/03/06 03:22:20;;;;;;;15.13;10.57;;;;;;;-1.91;nan;98389.19;5055817;28;20442;-70
2022/03/06 03:24:47;;;;;;;13.90;10.30;;;;;;;-1.73;nan;98382.38;5056515;28;20442;-70
2022/03/06 03:27:13;;;;;;;15.30;10.00;;;;;;;-1.79;nan;98388.13;5056415;28;20477;-70
2022/03/06 03:29:39;;;;;;;17.30;9.83;;;;;;;-1.83;nan;98391.97;5036495;28;20898;-70
2022/03/06 03:32:06;;;;;;;13.17;9.70;;;;;;;-1.88;nan;98386.34;5036674;28;20443;-70
2022/03/06 03:34:33;;;;;;;14.53;10.37;;;;;;;-1.91;nan;98380.53;5056213;28;20445;-70
2022/03/06 03:37:00;;;;;;;15.97;10.43;;;;;;;-1.95;nan;98393.03;5056387;28;20434;-67
2022/03/06 03:39:27;;;;;;;17.87;10.33;;;;;;;-1.99;nan;98391.63;5056047;28;20477;-67
2022/03/06 03:41:53;;;;;;;14.53;9.60;;;;;;;-2.04;nan;98391.22;5046062;28;20443;-71
2022/03/06 03:44:20;;;;;;;14.80;10.30;;;;;;;-2.04;nan;98388.59;5054183;28;20434;-70
2022/03/06 03:46:46;;;;;;;15.53;10.10;;;;;;;-2.02;nan;98396.28;5055958;28;20877;-70
2022/03/06 03:49:14;;;;;;;17.07;10.23;;;;;;;-2.17;nan;98397.63;5056232;28;20458;-70
2022/03/06 03:51:41;;;;;;;15.90;10.33;;;;;;;-2.24;nan;98399.94;5045537;28;20438;-68
2022/03/06 03:54:08;;;;;;;16.10;10.67;;;;;;;-2.28;nan;98405.50;5052448;28;20457;-72
2022/03/06 03:56:35;;;;;;;14.77;10.13;;;;;;;-2.04;nan;98404.25;5055876;28;20786;-71
2022/03/06 03:59:01;;;;;;;17.60;10.70;;;;;;;-2.02;nan;98410.16;5056165;28;20472;-67
2022/03/06 04:01:28;;;;;;;16.07;10.23;;;;;;;-1.99;nan;98406.47;5050501;28;20446;-71
2022/03/06 04:03:54;;;;;;;16.67;10.50;;;;;;;-1.95;nan;98416.47;5056027;28;20439;-71
2022/03/06 04:06:20;;;;;;;14.73;10.20;;;;;;;-2.07;nan;98420.13;5055840;28;20419;-71
2022/03/06 04:08:47;;;;;;;14.77;10.07;;;;;;;-2.02;nan;98419.75;5055949;28;20478;-72
2022/03/06 04:11:13;;;;;;;16.27;10.10;;;;;;;-2.04;nan;98422.47;5055468;28;20442;-71
2022/03/06 04:13:39;;;;;;;16.53;9.27;;;;;;;-2.04;nan;98427.69;5055654;28;20429;-72
2022/03/06 04:16:07;;;;;;;15.67;10.20;;;;;;;-2.08;nan;98428.91;5055426;28;20445;-71
2022/03/06 04:18:33;;;;;;;13.67;10.17;;;;;;;-2.15;nan;98427.78;5055874;28;20476;-68
2022/03/06 04:21:00;;;;;;;16.00;10.30;;;;;;;-2.16;nan;98435.72;5051585;28;20446;-68
2022/03/06 04:23:26;;;;;;;15.20;10.07;;;;;;;-2.22;nan;98429.25;5036170;28;20438;-71
2022/03/06 04:25:52;;;;;;;13.43;9.73;;;;;;;-2.12;nan;98440.53;5036462;28;20430;-67
2022/03/06 04:28:19;;;;;;;14.17;10.00;;;;;;;-2.15;nan;98439.97;5038551;28;20490;-68
2022/03/06 04:30:45;;;;;;;18.23;9.93;;;;;;;-2.23;nan;98438.03;5041831;28;20441;-72
2022/03/06 04:33:11;;;;;;;16.47;10.70;;;;;;;-2.21;nan;98437.91;5059733;28;20441;-71
2022/03/06 04:35:38;;;;;;;15.27;10.27;;;;;;;-2.33;nan;98431.97;5059412;28;20736;-71
2022/03/06 04:38:04;;;;;;;14.50;9.57;;;;;;;-2.21;nan;98443.09;5059124;28;20557;-72
2022/03/06 04:40:30;;;;;;;16.33;10.00;;;;;;;-2.27;nan;98439.25;5060089;28;20444;-71
2022/03/06 04:42:57;;;;;;;15.77;10.07;;;;;;;-2.23;nan;98451.03;5049847;28;20434;-71
2022/03/06 04:45:25;;;;;;;15.23;9.90;;;;;;;-2.28;nan;98437.59;5059347;28;20437;-71
2022/03/06 04:47:52;;;;;;;14.63;10.03;;;;;;;-2.34;nan;98438.09;5059163;28;20473;-71
2022/03/06 04:50:18;;;;;;;16.80;10.40;;;;;;;-2.33;nan;98437.16;5059410;28;20438;-68
2022/03/06 04:52:44;;;;;;;14.23;9.70;;;;;;;-2.37;nan;98438.38;5044771;28;20433;-68
2022/03/06 04:55:11;;;;;;;15.60;9.93;;;;;;;-2.33;nan;98442.38;5059632;28;20425;-72
2022/03/06 04:57:37;;;;;;;13.30;9.50;;;;;;;-2.33;nan;98438.94;5059233;28;20430;-72
2022/03/06 05:00:06;;;;;;;13.83;9.70;;;;;;;-2.32;nan;98446.63;5041636;28;20455;-72
2022/03/06 05:02:32;;;;;;;16.83;10.27;;;;;;;-2.42;nan;98448.34;5045069;28;20427;-68
2022/03/06 05:04:59;;;;;;;14.63;9.67;;;;;;;-2.58;nan;98447.16;5055939;28;20433;-72
2022/03/06 05:07:25;;;;;;;14.93;10.43;;;;;;;-2.68;nan;98452.28;5059353;28;20474;-71
2022/03/06 05:09:51;;;;;;;14.23;10.00;;;;;;;-2.56;nan;98455.66;5052789;28;20453;-71
2022/03/06 05:12:18;;;;;;;13.97;9.33;;;;;;;-2.57;nan;98454.81;5040931;28;20901;-71
2022/03/06 05:14:44;;;;;;;16.50;10.90;;;;;;;-2.53;nan;98463.22;5040214;28;20431;-71
2022/03/06 05:17:10;;;;;;;14.10;9.87;;;;;;;-2.48;nan;98458.44;5039201;28;20718;-71
2022/03/06 05:19:37;;;;;;;14.63;10.00;;;;;;;-2.51;nan;98454.31;5040245;28;20941;-71
2022/03/06 05:22:03;;;;;;;14.70;9.90;;;;;;;-2.49;nan;98456.81;5058428;28;20460;-71
2022/03/06 05:24:30;;;;;;;15.20;10.10;;;;;;;-2.55;nan;98463.34;5058855;28;20453;-71
2022/03/06 05:26:56;;;;;;;16.30;10.53;;;;;;;-2.57;nan;98462.63;5057232;28;20737;-71
2022/03/06 05:29:22;;;;;;;15.13;10.10;;;;;;;-2.54;nan;98467.59;5058617;28;20481;-71
2022/03/06 05:31:49;;;;;;;17.13;10.03;;;;;;;-2.45;nan;98464.22;5058755;28;20439;-71
2022/03/06 05:34:15;;;;;;;14.67;10.20;;;;;;;-2.47;nan;98460.09;5058711;28;20474;-71
2022/03/06 05:36:42;;;;;;;14.80;10.07;;;;;;;-2.48;nan;98467.06;5057522;28;20439;-70
2022/03/06 05:39:08;;;;;;;16.17;9.83;;;;;;;-2.53;nan;98468.44;5058284;28;20454;-68
2022/03/06 05:41:34;;;;;;;15.83;10.33;;;;;;;-2.41;nan;98467.38;5058603;28;20438;-71
2022/03/06 05:44:01;;;;;;;16.47;10.13;;;;;;;-2.37;nan;98481.78;5058279;28;20431;-72
2022/03/06 05:46:27;;;;;;;16.47;10.30;;;;;;;-2.20;nan;98478.59;5047396;28;20423;-73
2022/03/06 05:48:53;;;;;;;14.30;10.10;;;;;;;-2.30;nan;98482.94;5057379;28;20504;-71
2022/03/06 05:51:19;;;;;;;17.67;11.30;;;;;;;-2.34;nan;98477.16;5059014;28;20425;-72
2022/03/06 05:53:46;;;;;;;14.97;10.20;;;;;;;-2.28;nan;98475.81;5057960;28;20438;-68
2022/03/06 05:56:13;;;;;;;15.30;10.07;;;;;;;-2.24;nan;98477.22;5058044;28;20429;-72
2022/03/06 05:58:39;;;;;;;13.97;9.93;;;;;;;-2.25;nan;98486.78;5057693;28;20458;-73
2022/03/06 06:01:05;;;;;;;14.80;9.93;;;;;;;-2.35;nan;98490.31;5058196;28;20453;-72
2022/03/06 06:03:32;;;;;;;16.13;10.93;;;;;;;-2.31;nan;98487.31;5057846;28;20434;-72
2022/03/06 06:05:58;;;;;;;14.97;9.57;;;;;;;-2.30;nan;98488.97;5052979;28;20435;-71
2022/03/06 06:08:25;;;;;;;16.47;10.50;;;;;;;-2.39;nan;98487.13;5048723;28;20489;-71
2022/03/06 06:10:51;;;;;;;14.60;10.10;;;;;;;-2.25;nan;98486.78;5057867;28;20710;-71
2022/03/06 06:13:19;;;;;;;17.07;10.97;;;;;;;-2.19;nan;98488.91;5057580;28;20438;-71
2022/03/06 06:15:45;;;;;;;15.00;10.27;;;;;;;-2.26;nan;98487.75;5056878;28;20439;-69
2022/03/06 06:18:12;;;;;;;15.83;10.30;;;;;;;-2.15;nan;98482.47;5058279;28;20750;-71
2022/03/06 06:20:38;;;;;;;14.47;10.10;;;;;;;-2.16;nan;98480.81;5057363;28;20728;-68
2022/03/06 06:23:05;;;;;;;14.40;9.63;;;;;;;-2.12;nan;98486.59;5057850;28;20491;-71
2022/03/06 06:25:31;;;;;;;15.37;10.57;;;;;;;-2.09;nan;98486.31;5057374;28;20433;-72
2022/03/06 06:27:58;;;;;;;15.63;10.13;;;;;;;-2.15;nan;98484.25;5057106;28;20486;-72
2022/03/06 06:30:24;;;;;;;16.10;10.20;;;;;;;-2.06;nan;98492.13;5057529;28;20430;-71
2022/03/06 06:32:50;;;;;;;13.47;9.47;;;;;;;-2.04;nan;98489.34;5057054;28;20512;-71
2022/03/06 06:35:17;;;;;;;17.87;11.93;;;;;;;-1.99;nan;98485.41;5053868;28;20426;-71
2022/03/06 06:37:43;;;;;;;15.47;10.23;;;;;;;-1.84;nan;98483.28;5056627;28;20457;-71
2022/03/06 06:40:10;;;;;;;17.60;11.00;;;;;;;-1.80;nan;98490.69;5056683;28;20438;-71
2022/03/06 06:42:36;;;;;;;15.20;10.57;;;;;;;-1.76;nan;98491.28;5057111;28;20446;-71
2022/03/06 06:45:04;;;;;;;17.67;11.20;;;;;;;-1.73;nan;98488.41;5056846;28;20438;-71
2022/03/06 06:47:30;;;;;;;15.93;9.67;;;;;;;-1.71;nan;98497.72;5048812;28;20438;-72
2022/03/06 06:49:56;;;;;;;17.37;10.03;;;;;;;-1.77;nan;98498.25;5044665;28;20949;-71
2022/03/06 06:52:23;;;;;;;15.63;10.57;;;;;;;-1.73;nan;98498.81;5057268;28;20426;-71
2022/03/06 06:54:49;;;;;;;14.27;10.07;;;;;;;-1.66;nan;98503.38;5056906;28;20445;-71
2022/03/06 06:57:15;;;;;;;15.17;10.50;;;;;;;-1.59;nan;98499.28;5056260;28;20455;-71
2022/03/06 06:59:42;;;;;;;15.43;10.43;;;;;;;-1.58;nan;98503.53;5054561;28;20454;-72
2022/03/06 07:02:08;;;;;;;16.40;10.83;;;;;;;-1.52;nan;98502.19;5056549;28;20457;-72
2022/03/06 07:04:34;;;;;;;15.27;10.67;;;;;;;-1.38;nan;98500.03;5056573;28;20874;-71
2022/03/06 07:07:01;;;;;;;14.47;10.33;;;;;;;-1.37;nan;98506.91;5053152;28;20441;-73
2022/03/06 07:09:27;;;;;;;15.43;10.73;;;;;;;-1.39;nan;98503.59;5055961;28;20490;-73
2022/03/06 07:11:53;;;;;;;16.80;10.77;;;;;;;-1.29;nan;98507.06;5056687;28;20434;-73
2022/03/06 07:14:20;;;;;;;13.60;9.97;;;;;;;-1.16;nan;98510.25;5056317;28;20444;-72
2022/03/06 07:16:46;;;;;;;16.07;10.90;;;;;;;-1.10;nan;98507.09;5056021;28;20465;-71
2022/03/06 07:19:13;;;;;;;14.87;10.00;;;;;;;-1.07;nan;98508.59;5056465;28;20451;-71
2022/03/06 07:21:39;;;;;;;15.93;10.73;;;;;;;-0.75;nan;98523.06;5056586;28;20434;-71
2022/03/06 07:24:07;;;;;;;14.77;10.63;;;;;;;-0.84;nan;98513.44;5056119;28;20438;-71
2022/03/06 07:26:34;;;;;;;15.47;10.60;;;;;;;-0.72;nan;98519.34;5046791;28;20748;-71
2022/03/06 07:29:00;;;;;;;14.80;10.80;;;;;;;-0.56;nan;98517.81;5055509;28;20921;-71
2022/03/06 07:31:26;;;;;;;16.27;11.90;;;;;;;-0.52;nan;98510.53;5056191;28;20438;-71
2022/03/06 07:33:53;;;;;;;14.50;10.67;;;;;;;-0.41;nan;98512.97;5056211;28;20857;-71
2022/03/06 07:36:19;;;;;;;16.63;11.10;;;;;;;-0.27;nan;98518.59;5055603;28;20439;-71
2022/03/06 07:38:45;;;;;;;14.17;11.13;;;;;;;-0.26;nan;98517.63;5054940;28;20450;-71
2022/03/06 07:41:12;;;;;;;15.10;10.70;;;;;;;-0.19;nan;98518.72;5055881;28;20438;-71
2022/03/06 07:43:39;;;;;;;15.63;11.17;;;;;;;-0.03;nan;98521.56;5055752;28;20434;-72
2022/03/06 07:46:05;;;;;;;13.40;10.17;;;;;;;-0.01;nan;98516.19;5055374;28;20446;-72
2022/03/06 07:48:32;;;;;;;17.03;11.80;;;;;;;0.07;nan;98518.94;5055788;28;20478;-72
2022/03/06 07:50:58;;;;;;;15.70;11.87;;;;;;;0.08;nan;98520.56;5055904;28;20900;-72
2022/03/06 07:53:24;;;;;;;13.20;10.80;;;;;;;0.14;nan;98520.84;5055787;28;20446;-71
2022/03/06 07:55:51;;;;;;;14.13;10.60;;;;;;;0.19;nan;98526.44;5045840;28;20442;-71
2022/03/06 07:58:17;;;;;;;16.30;11.10;;;;;;;0.28;nan;98530.81;5050700;28;20454;-71
2022/03/06 08:00:43;;;;;;;15.63;11.63;;;;;;;0.42;nan;98531.31;5056136;28;20446;-71
2022/03/06 08:03:10;;;;;;;15.10;10.80;;;;;;;0.59;nan;98533.19;5054870;28;20206;-71
2022/03/06 08:05:37;;;;;;;16.70;11.47;;;;;;;0.42;nan;98536.56;5055498;28;20440;-71
2022/03/06 08:08:04;;;;;;;14.00;11.10;;;;;;;0.45;nan;98536.28;5055479;28;20469;-71
2022/03/06 08:10:30;;;;;;;16.87;12.13;;;;;;;0.53;nan;98536.38;5043720;28;20193;-71
2022/03/06 08:12:56;;;;;;;17.10;11.87;;;;;;;0.84;nan;98543.78;5056180;28;20189;-71
2022/03/06 08:15:23;;;;;;;16.20;11.27;;;;;;;0.71;nan;98539.88;5054985;28;20216;-71
2022/03/06 08:17:49;;;;;;;18.30;12.00;;;;;;;0.60;nan;98537.44;5056094;28;20430;-71
2022/03/06 08:20:16;;;;;;;18.03;12.43;;;;;;;0.68;nan;98534.94;5056042;28;20194;-71
2022/03/06 08:22:42;;;;;;;14.83;11.50;;;;;;;0.77;nan;98541.91;5055674;28;20861;-72
2022/03/06 08:25:09;;;;;;;14.80;11.40;;;;;;;0.90;nan;98537.16;5050765;28;20190;-72
2022/03/06 08:27:35;;;;;;;15.73;12.27;;;;;;;1.08;nan;98536.19;5036626;28;20206;-73
2022/03/06 08:30:02;;;;;;;14.63;11.47;;;;;;;1.29;nan;98530.66;5049497;28;20232;-72
2022/03/06 08:32:28;;;;;;;17.07;11.63;;;;;;;1.54;nan;98537.78;5050972;28;20191;-72
2022/03/06 08:34:55;;;;;;;13.47;11.07;;;;;;;1.60;nan;98538.00;5043240;28;20190;-72
2022/03/06 08:37:22;;;;;;;15.00;10.90;;;;;;;1.59;nan;98533.75;5039740;28;20201;-68
2022/03/06 08:39:49;;;;;;;15.80;10.83;;;;;;;1.82;nan;98536.69;5055934;28;20217;-71
2022/03/06 08:42:17;;;;;;;13.70;11.30;;;;;;;1.78;nan;98535.34;5055354;28;20197;-71
2022/03/06 08:44:43;;;;;;;14.17;11.47;;;;;;;1.70;nan;98533.50;5055780;28;20209;-71
2022/03/06 08:47:10;;;;;;;14.27;10.97;;;;;;;1.72;nan;98533.34;5055877;28;20189;-68
2022/03/06 08:49:36;;;;;;;13.53;10.23;;;;;;;1.97;nan;98535.16;5055412;28;20505;-71
2022/03/06 08:52:03;;;;;;;13.30;9.87;;;;;;;2.02;nan;98535.50;5054913;28;20205;-71
2022/03/06 08:54:29;;;;;;;16.30;11.03;;;;;;;2.06;nan;98529.00;5035445;28;20601;-71
2022/03/06 08:56:56;;;;;;;14.27;10.93;;;;;;;2.16;nan;98532.34;5053337;28;20193;-72
2022/03/06 08:59:23;;;;;;;14.67;11.50;;;;;;;2.24;nan;98529.75;5055479;28;20221;-72
2022/03/06 09:01:55;;;;;;;12.93;10.50;;;;;;;2.18;nan;98525.97;5055065;28;20570;-73
2022/03/06 09:04:22;;;;;;;16.50;10.60;;;;;;;2.22;nan;98532.53;5054451;28;20276;-72
2022/03/06 09:06:48;;;;;;;16.30;11.27;;;;;;;2.30;nan;98526.53;5055550;28;20197;-68
2022/03/06 09:09:15;;;;;;;15.50;11.03;;;;;;;2.43;nan;98524.31;5055384;28;20239;-71
2022/03/06 09:11:41;;;;;;;14.37;11.30;;;;;;;2.42;nan;98522.63;5035646;28;20187;-71
2022/03/06 09:14:08;;;;;;;15.17;10.90;;;;;;;2.44;nan;98529.38;5039886;28;20190;-68
2022/03/06 09:16:34;;;;;;;14.67;10.87;;;;;;;2.41;nan;98521.84;5059266;28;20198;-71
2022/03/06 09:19:01;;;;;;;14.70;10.90;;;;;;;2.60;nan;98526.00;5058509;28;20659;-68
2022/03/06 09:21:28;;;;;;;15.23;11.00;;;;;;;2.61;nan;98527.66;5059005;28;20185;-71
2022/03/06 09:23:55;;;;;;;15.83;11.07;;;;;;;2.73;nan;98532.47;5051792;28;20229;-71
2022/03/06 09:26:21;;;;;;;14.13;10.93;;;;;;;2.80;nan;98525.59;5059077;28;20194;-71
2022/03/06 09:28:47;;;;;;;14.43;10.70;;;;;;;2.91;nan;98522.69;5058716;28;20233;-70
2022/03/06 09:31:14;;;;;;;15.17;11.03;;;;;;;2.99;nan;98524.53;5042987;28;20217;-71
2022/03/06 09:33:40;;;;;;;15.17;11.00;;;;;;;3.03;nan;98534.53;5042727;28;20194;-69
2022/03/06 09:36:07;;;;;;;15.63;11.13;;;;;;;3.05;nan;98526.50;5058728;28;20200;-69
2022/03/06 09:38:33;;;;;;;14.17;11.13;;;;;;;3.28;nan;98520.47;5057960;28;20222;-66
2022/03/06 09:41:04;;;;;;;15.13;10.90;;;;;;;3.35;nan;98525.91;5044848;28;20201;-68
2022/03/06 09:43:31;;;;;;;14.20;10.13;;;;;;;3.42;nan;98519.00;5044788;28;20193;-70
2022/03/06 09:46:07;;;;;;;11.63;9.60;;;;;;;3.48;nan;98527.06;5058207;28;20205;-71
2022/03/06 09:48:34;;;;;;;11.10;9.00;;;;;;;3.61;nan;98516.09;5057542;28;20227;-66
2022/03/06 09:51:04;;;;;;;14.37;10.07;;;;;;;3.55;nan;98517.56;5057046;28;20201;-71
2022/03/06 09:53:32;;;;;;;15.50;11.03;;;;;;;3.65;nan;98514.75;5054191;28;20197;-66
2022/03/06 09:55:59;;;;;;;11.27;8.90;;;;;;;3.67;nan;98512.78;5057605;28;20201;-66
2022/03/06 09:58:25;;;;;;;13.23;10.20;;;;;;;3.71;nan;98514.09;5058289;28;20578;-69
2022/03/06 10:00:52;;;;;;;14.87;10.20;;;;;;;3.89;nan;98504.22;5056363;28;20216;-70
2022/03/06 10:03:21;;;;;;;12.90;9.83;;;;;;;3.90;nan;98516.38;5058067;28;20208;-70
2022/03/06 10:05:47;;;;;;;12.60;9.83;;;;;;;4.09;nan;98511.59;5057794;28;20197;-70
2022/03/06 10:08:18;;;;;;;12.47;9.93;;;;;;;4.18;nan;98504.50;5057878;28;20240;-70
2022/03/06 10:10:46;;;;;;;12.10;9.70;;;;;;;4.27;nan;98508.75;5049526;28;20202;-69
2022/03/06 10:13:28;;;;;;;11.57;8.97;;;;;;;4.82;nan;98517.44;5058025;28;20216;-70
2022/03/06 10:15:59;;;;;;;12.30;9.53;;;;;;;5.00;nan;98510.13;5057402;28;20546;-70
2022/03/06 10:18:26;;;;;;;11.53;9.50;;;;;;;4.91;nan;98505.88;5057647;28;20234;-69
2022/03/06 10:20:52;;;;;;;13.30;10.13;;;;;;;5.20;nan;98498.97;5046980;28;20202;-70
2022/03/06 10:23:28;;;;;;;12.77;9.60;;;;;;;5.38;nan;98506.59;5037692;28;20202;-70
2022/03/06 10:26:07;;;;;;;12.97;10.00;;;;;;;5.66;nan;98499.78;5056335;28;20236;-70
2022/03/06 10:28:48;;;;;;;12.30;9.47;;;;;;;5.63;nan;98508.06;5056865;28;20650;-71
2022/03/06 10:31:15;;;;;;;13.13;9.70;;;;;;;5.60;nan;98503.13;5044394;28;20204;-71
2022/03/06 10:34:07;;;;;;;1362.07;687.70;;;;;;;5.60;nan;98511.03;5049693;28;20197;-71
2022/03/06 10:36:47;;;;;;;13.90;10.10;;;;;;;5.58;nan;98513.03;5057358;28;20191;-71
2022/03/06 10:39:17;;;;;;;34.60;21.90;;;;;;;5.81;nan;98517.34;5057286;28;20232;-70
2022/03/06 10:41:47;;;;;;;12.97;9.47;;;;;;;6.00;nan;98511.56;5039828;28;20244;-71
2022/03/06 10:44:14;;;;;;;1999.90;999.90;;;;;;;5.95;nan;98510.44;5052366;28;20221;-70
2022/03/06 10:46:42;;;;;;;380.03;89.47;;;;;;;6.22;nan;98501.94;5057411;28;20190;-70
2022/03/06 10:49:17;;;;;;;11.17;8.67;;;;;;;6.06;nan;98505.56;5056612;28;20651;-70
2022/03/06 10:51:50;;;;;;;39.07;26.67;;;;;;;5.58;nan;98511.22;5040643;28;20198;-70
2022/03/06 10:54:17;;;;;;;13.00;9.80;;;;;;;5.34;nan;98507.94;5052162;28;20331;-70
2022/03/06 10:56:47;;;;;;;52.23;15.17;;;;;;;5.06;nan;98498.91;5057086;28;20189;-70
2022/03/06 10:59:18;;;;;;;258.00;52.77;;;;;;;5.02;nan;98500.25;5056370;28;20239;-70
2022/03/06 11:01:46;;;;;;;11.37;8.83;;;;;;;4.95;nan;98507.19;5056424;28;20244;-70
2022/03/06 11:04:14;;;;;;;48.27;14.27;;;;;;;4.70;nan;98503.03;5056723;28;20190;-70
2022/03/06 11:06:42;;;;;;;280.73;62.77;;;;;;;5.09;nan;98501.16;5056995;28;20259;-70
2022/03/06 11:09:13;;;;;;;85.63;19.50;;;;;;;5.34;nan;98500.84;5049145;28;20385;-70
2022/03/06 11:11:42;;;;;;;10.63;8.50;;;;;;;5.77;nan;98499.34;5037171;28;20194;-71
2022/03/06 11:14:09;;;;;;;11.07;8.60;;;;;;;6.35;nan;98500.31;5048315;28;20194;-71
2022/03/06 11:16:37;;;;;;;11.50;8.50;;;;;;;6.45;nan;98495.59;5056442;28;20589;-71
2022/03/06 11:19:05;;;;;;;11.13;8.10;;;;;;;6.40;nan;98487.41;5051339;28;20264;-71
2022/03/06 11:21:36;;;;;;;10.57;8.20;;;;;;;6.46;nan;98493.75;5036527;28;20197;-71
2022/03/06 11:24:10;;;;;;;11.50;8.77;;;;;;;6.42;nan;98495.94;5046371;28;20194;-71
2022/03/06 11:26:56;;;;;;;10.37;8.40;;;;;;;6.74;nan;98492.91;5056512;28;20193;-70
2022/03/06 11:29:50;;;;;;;9.67;8.03;;;;;;;6.56;nan;98499.59;5055515;28;20655;-70
2022/03/06 11:32:28;;;;;;;11.90;8.60;;;;;;;7.18;nan;98501.59;5056232;28;20467;-68
2022/03/06 11:35:03;;;;;;;62.57;11.17;;;;;;;7.46;nan;98496.41;5055502;28;20208;-70
2022/03/06 11:37:29;;;;;;;164.27;61.87;;;;;;;7.17;nan;98496.47;5054950;28;20189;-71
2022/03/06 11:39:56;;;;;;;10.30;7.93;;;;;;;6.94;nan;98506.38;5055347;28;20228;-71